Data for 10/21/2014

Time Sea-Level Adjusted Pressure Absolute Pressure Temperature Relative Humidity Dew Point   
(mb) (inHg) (mb) (inHg) (C) (F) (%) (C) (F)
00:05 1012 29.88 841 24.83 14.9 58.8 36 -0.1 31.9
00:10 1012 29.88 841 24.83 14.8 58.6 36 0.1 32.2
00:15 1012 29.88 841 24.83 14.4 57.9 37 0 32
00:20 1012 29.88 841 24.83 14.5 58.2 36 -0.1 31.8
00:25 1012 29.88 841 24.83 14.7 58.5 36 -0.1 31.8
00:30 1012 29.88 841 24.83 14.7 58.4 37 0.1 32.2
00:35 1012 29.88 841 24.83 14.4 57.9 37 0.1 32.2
00:40 1012 29.88 841 24.83 14.2 57.6 38 0.3 32.5
00:45 1012 29.88 841 24.83 14.2 57.5 38 -0 31.9
00:50 1012 29.88 841 24.83 14.2 57.5 39 0.3 32.6
00:55 1012 29.88 841 24.83 13.8 56.9 39 0.1 32.1
01:00 1012 29.88 841 24.83 13.9 57.1 37 -0.3 31.4
01:05 1012 29.88 841 24.83 14.4 58 38 0.2 32.4
01:10 1012 29.88 841 24.83 14.3 57.8 38 0.3 32.6
01:15 1012 29.88 841 24.83 13.8 56.9 39 0.1 32.2
01:20 1012 29.88 841 24.83 14.1 57.4 38 -0.1 31.9
01:25 1012 29.88 841 24.83 14 57.3 39 0.4 32.7
01:30 1012 29.88 841 24.83 13.8 56.8 39 0.3 32.5
01:35 1012 29.88 841 24.83 13.4 56.1 41 0.5 32.8
01:40 1012 29.88 841 24.83 13.4 56.1 40 0.3 32.5
01:45 1012 29.88 841 24.83 13.3 56 41 0.3 32.5
01:50 1012 29.88 841 24.83 13.3 56 41 0.4 32.7
01:55 1012 29.88 841 24.83 13.1 55.5 41 0.3 32.5
02:00 1012 29.88 841 24.83 13 55.5 42 0.5 33
02:05 1012 29.88 841 24.83 12.7 54.9 42 0.1 32.2
02:10 1012 29.88 841 24.83 12.8 55 42 0.4 32.6
02:15 1011 29.85 841 24.83 12.6 54.7 42 0.1 32.2
02:20 1011 29.85 841 24.83 12.7 54.9 43 0.4 32.8
02:25 1011 29.85 841 24.83 12.8 55 42 0.3 32.5
02:30 1011 29.85 841 24.83 13.1 55.5 41 0.2 32.3
02:35 1011 29.85 840 24.81 13.3 56 41 0.4 32.6
02:40 1011 29.85 840 24.81 13.2 55.8 41 0.3 32.6
02:45 1011 29.85 840 24.81 13.2 55.8 41 0.4 32.8
02:50 1011 29.85 840 24.81 13 55.5 42 0.4 32.8
02:55 1011 29.85 840 24.81 13.1 55.5 42 0.4 32.7
03:00 1011 29.85 840 24.81 13 55.4 42 0.3 32.6
03:05 1011 29.85 840 24.81 13.1 55.5 41 0.3 32.5
03:10 1011 29.85 840 24.81 13.1 55.6 41 0.2 32.4
03:15 1011 29.85 840 24.81 13.4 56.1 39 -0.2 31.7
03:20 1011 29.85 840 24.81 13.8 56.8 38 -0.4 31.4
03:25 1011 29.85 840 24.81 13.9 57 39 0.1 32.2
03:30 1011 29.85 840 24.81 13.6 56.6 39 -0.1 31.9
03:35 1011 29.85 840 24.81 13.6 56.4 39 -0.2 31.6
03:40 1011 29.85 840 24.81 13.5 56.3 39 -0.1 31.7
03:45 1011 29.85 840 24.81 13.6 56.5 38 -0.3 31.4
03:50 1011 29.85 840 24.81 13.6 56.5 39 0.1 32.1
03:55 1011 29.85 840 24.81 13.5 56.2 38 -0.3 31.4
04:00 1011 29.85 840 24.81 13.4 56.1 40 -0 31.9
04:05 1011 29.85 840 24.81 13.1 55.6 39 -0.4 31.2
04:10 1011 29.85 840 24.81 13.2 55.7 40 -0.1 31.8
04:15 1011 29.85 840 24.81 13.2 55.7 40 -0.2 31.7
04:20 1011 29.85 840 24.81 13.1 55.5 39 -0.4 31.3
04:25 1011 29.85 840 24.81 13.6 56.4 39 -0.1 31.9
04:30 1011 29.85 840 24.81 13.1 55.6 40 -0.1 31.9
04:35 1011 29.85 840 24.81 13 55.5 39 -0.4 31.3
04:40 1011 29.85 840 24.81 13.1 55.5 40 -0.1 31.8
04:45 1011 29.85 840 24.81 13.1 55.6 39 -0.3 31.5
04:50 1011 29.85 840 24.81 13 55.5 41 0.1 32.1
04:55 1011 29.85 840 24.81 12.8 55.1 41 -0.1 31.8
05:00 1011 29.85 840 24.81 12.6 54.7 42 -0 32
05:05 1011 29.85 840 24.81 12.5 54.4 42 -0.1 31.8
05:10 1011 29.85 840 24.81 12.4 54.4 42 -0.1 31.9
05:15 1011 29.85 840 24.81 12.5 54.6 42 -0.1 31.9
05:20 1011 29.85 840 24.81 12.6 54.6 42 0 32.1
05:25 1011 29.85 840 24.81 12.4 54.4 43 0.1 32.3
05:30 1011 29.85 840 24.81 12.4 54.2 42 -0.1 31.8
05:35 1011 29.85 840 24.81 12.7 54.8 41 -0.1 31.8
05:40 1011 29.85 840 24.81 12.8 55 41 -0.1 31.8
05:45 1011 29.85 840 24.81 13.4 56.1 38 -0.5 31.1
05:50 1011 29.85 840 24.81 13.9 57 37 -0.3 31.4
05:55 1011 29.85 840 24.81 14 57.3 38 -0 32
06:00 1011 29.85 840 24.81 14.3 57.8 37 -0.1 31.8
06:05 1010 29.83 840 24.81 14.4 57.9 38 0.4 32.7
06:10 1010 29.83 840 24.81 14.6 58.3 37 0.1 32.2
06:15 1010 29.83 840 24.81 14.7 58.5 37 0.3 32.6
06:20 1010 29.83 840 24.81 14.8 58.7 37 0.2 32.4
06:25 1010 29.83 840 24.81 14.9 58.8 37 0.6 33
06:30 1010 29.83 840 24.81 14.8 58.6 37 0.5 32.9
06:35 1010 29.83 840 24.81 14.6 58.2 38 0.7 33.2
06:40 1010 29.83 839 24.78 14.1 57.5 40 0.7 33.2
06:45 1010 29.83 839 24.78 14.2 57.6 39 0.6 33.1
06:50 1010 29.83 839 24.78 14.2 57.6 39 0.4 32.7
06:55 1010 29.83 839 24.78 14.5 58.1 37 0.1 32.3
07:00 1010 29.83 840 24.81 14.8 58.7 36 0.1 32.1
07:05 1010 29.83 840 24.81 15.1 59.2 36 0.1 32.2
07:10 1010 29.83 840 24.81 15.8 60.4 36 0.9 33.5
07:15 1010 29.83 840 24.81 15.9 60.6 36 1 33.8
07:20 1010 29.83 840 24.81 15.7 60.3 36 0.9 33.7
07:25 1011 29.85 840 24.81 15.9 60.5 38 1.6 34.9
07:30 1011 29.85 840 24.81 15.7 60.3 36 1 33.7
07:35 1011 29.85 840 24.81 15.7 60.3 36 0.9 33.6
07:40 1011 29.85 840 24.81 15.4 59.7 38 1.3 34.4
07:45 1011 29.85 840 24.81 15.5 59.8 40 2 35.6
07:50 1011 29.85 840 24.81 15.7 60.2 39 1.9 35.4
07:55 1011 29.85 840 24.81 15.6 60 40 2.1 35.8
08:00 1011 29.85 840 24.81 15.3 59.6 40 1.8 35.2
08:05 1011 29.85 840 24.81 15.3 59.5 40 1.8 35.2
08:10 1010 29.83 840 24.81 15.3 59.6 38 1.3 34.3
08:15 1010 29.83 840 24.81 15.2 59.3 38 0.9 33.7
08:20 1010 29.83 840 24.81 15 59 38 1 33.8
08:25 1010 29.83 840 24.81 14.7 58.5 41 1.6 34.8
08:30 1010 29.83 840 24.81 14.4 57.8 44 2.4 36.3
08:35 1010 29.83 840 24.81 14.3 57.7 41 1.2 34.2
08:40 1010 29.83 840 24.81 14.6 58.3 41 1.7 35.1
08:45 1010 29.83 840 24.81 14.4 57.9 42 1.7 35
08:50 1011 29.85 840 24.81 14.3 57.8 44 2.3 36.1
08:55 1010 29.83 840 24.81 14.4 57.9 42 1.6 34.8
09:00 1010 29.83 840 24.81 14.6 58.3 44 2.7 36.9
09:05 1010 29.83 840 24.81 14.7 58.4 43 2.3 36.2
09:10 1010 29.83 839 24.78 15 59 40 1.6 34.9
09:15 1010 29.83 839 24.78 15.9 60.6 40 2.4 36.3
09:20 1010 29.83 839 24.78 16.3 61.4 39 2.4 36.4
09:25 1010 29.83 839 24.78 16.2 61.2 39 2.2 36
09:30 1010 29.83 839 24.78 16.8 62.3 38 2.5 36.5
09:35 1010 29.83 839 24.78 17.2 62.9 38 3 37.4
09:40 1010 29.83 839 24.78 16.8 62.3 38 2.7 36.9
09:45 1010 29.83 839 24.78 16.9 62.4 38 2.8 37
09:50 1010 29.83 839 24.78 16.9 62.5 39 3 37.4
09:55 1010 29.83 839 24.78 16.9 62.5 39 2.9 37.1
10:00 1010 29.83 839 24.78 16.9 62.5 39 2.9 37.1
10:05 1010 29.83 839 24.78 17.2 62.9 38 3 37.4
10:10 1010 29.83 839 24.78 17.3 63.2 37 2.5 36.5
10:15 1010 29.83 839 24.78 17.6 63.6 34 1.6 34.9
10:20 1010 29.83 839 24.78 17.4 63.3 35 2.1 35.7
10:25 1010 29.83 839 24.78 17.4 63.3 36 2.3 36.1
10:30 1010 29.83 839 24.78 17.4 63.3 36 2.2 35.9
10:35 1010 29.83 839 24.78 17.3 63.1 36 2.1 35.7
10:40 1010 29.83 839 24.78 17.3 63.2 35 1.9 35.4
10:45 1010 29.83 839 24.78 17.6 63.7 31 0.6 33
10:50 1010 29.83 839 24.78 17.8 64.1 33 1.4 34.5
10:55 1010 29.83 839 24.78 17.7 63.8 35 2 35.7
11:00 1010 29.83 839 24.78 17.4 63.3 35 1.8 35.3
11:05 1010 29.83 839 24.78 17.4 63.3 33 1.1 34
11:10 1010 29.83 839 24.78 17.3 63.2 35 1.8 35.3
11:15 1010 29.83 839 24.78 17.4 63.2 32 0.8 33.4
11:20 1010 29.83 839 24.78 17.7 63.9 31 0.6 33.2
11:25 1010 29.83 839 24.78 17.6 63.7 34 1.6 34.9
11:30 1010 29.83 839 24.78 18 64.4 31 1 33.8
11:35 1010 29.83 839 24.78 17.6 63.7 32 0.9 33.7
11:40 1010 29.83 839 24.78 17.3 63.1 32 0.4 32.7
11:45 1010 29.83 839 24.78 17.2 63 31 -0 32
11:50 1010 29.83 839 24.78 17.3 63.1 30 -0.4 31.3
11:55 1010 29.83 839 24.78 17.6 63.7 29 -0.3 31.4
12:00 1010 29.83 839 24.78 17.4 63.3 30 -0.1 31.8
12:05 1010 29.83 839 24.78 17 62.7 31 0 32.1
12:10 1010 29.83 839 24.78 17.1 62.7 31 -0.1 31.8
12:15 1010 29.83 839 24.78 17.1 62.7 32 0.1 32.3
12:20 1010 29.83 839 24.78 16.6 61.8 33 0.2 32.3
12:25 1010 29.83 839 24.78 16.5 61.7 32 -0.3 31.4
12:30 1010 29.83 839 24.78 16.1 61 32 -0.4 31.2
12:35 1010 29.83 839 24.78 16.1 61 32 -0.6 30.9
12:40 1010 29.83 839 24.78 16 60.9 32 -0.5 31.1
12:45 1010 29.83 839 24.78 16 60.7 32 -0.5 31.1
12:50 1010 29.83 839 24.78 15.9 60.5 30 -1.5 29.3
12:55 1010 29.83 839 24.78 15.9 60.6 31 -1.2 29.8
13:00 1010 29.83 839 24.78 15.9 60.7 31 -1.2 29.9
13:05 1010 29.83 839 24.78 15.9 60.7 31 -0.9 30.3
13:10 1010 29.83 840 24.81 16 60.7 29 -1.7 28.9
13:15 1010 29.83 840 24.81 15.8 60.5 30 -1.8 28.8
13:20 1010 29.83 840 24.81 15.9 60.6 28 -2.6 27.4
13:25 1010 29.83 839 24.78 15.9 60.6 29 -2.2 28
13:30 1010 29.83 839 24.78 16.3 61.3 25 -3.8 25.1
13:35 1010 29.83 840 24.81 16.2 61.1 25 -3.8 25.2
13:40 1010 29.83 839 24.78 16.6 62 23 -4.7 23.6
13:45 1010 29.83 839 24.78 16.5 61.6 21 -5.9 21.4
13:50 1010 29.83 840 24.81 16.2 61.1 21 -6.3 20.7
13:55 1010 29.83 840 24.81 16.1 61 19 -7.7 18.2
14:00 1010 29.83 840 24.81 16.1 61 18 -8.1 17.5
14:05 1010 29.83 840 24.81 16.2 61.1 15 -10.2 13.7
14:10 1011 29.85 840 24.81 16.2 61.1 15 -10.1 13.9
14:15 1011 29.85 840 24.81 16 60.7 15 -10.3 13.4
14:20 1011 29.85 840 24.81 15.5 59.9 17 -9.3 15.3
14:25 1011 29.85 840 24.81 15.5 59.8 15 -10.6 12.8
14:30 1011 29.85 840 24.81 15.1 59.1 17 -9.4 15.1
14:35 1011 29.85 841 24.83 14.7 58.5 19 -8.5 16.7
14:40 1012 29.88 841 24.83 14.7 58.4 19 -8.3 17
14:45 1012 29.88 841 24.83 14.8 58.6 22 -6.6 20.2
14:50 1012 29.88 841 24.83 14.7 58.4 23 -6.1 21.1
14:55 1012 29.88 841 24.83 13.9 57.1 25 -5.5 22
15:00 1012 29.88 841 24.83 13.4 56.1 31 -3.2 26.2
15:05 1013 29.91 842 24.86 12.6 54.6 34 -2.9 26.7
15:10 1013 29.91 842 24.86 11.7 53 40 -1.5 29.3
15:15 1013 29.91 842 24.86 10.8 51.5 45 -0.5 31.1
15:20 1013 29.91 842 24.86 10.3 50.5 49 -0 31.9
15:25 1013 29.91 843 24.89 9.8 49.7 52 0.6 33
15:30 1014 29.94 843 24.89 9.2 48.5 56 1 33.7
15:35 1014 29.94 843 24.89 8.7 47.7 59 1.1 33.9
15:40 1014 29.94 843 24.89 8 46.5 60 0.8 33.5
15:45 1014 29.94 844 24.92 7.8 46.1 64 1.4 34.5
15:50 1015 29.97 844 24.92 7.2 45 73 2.6 36.7
15:55 1015 29.97 844 24.92 6.6 44 73 2.1 35.7
16:00 1015 29.97 845 24.95 6.4 43.6 74 2 35.7
16:05 1016 30 845 24.95 6.3 43.4 74 2.1 35.7
16:10 1016 30 845 24.95 6.2 43.1 76 2.3 36.2
16:15 1016 30 845 24.95 6 42.7 82 3.2 37.7
16:20 1016 30 845 24.95 5.4 41.7 82 2.6 36.6
16:25 1016 30 845 24.95 5.2 41.3 81 2.2 36
16:30 1016 30 846 24.98 4.9 40.9 84 2.4 36.3
16:35 1016 30 846 24.98 4.9 40.8 84 2.3 36.2
16:40 1016 30 846 24.98 4.9 40.8 82 2.1 35.8
16:45 1016 30 846 24.98 4.9 40.8 82 2 35.6
16:50 1016 30 846 24.98 4.9 40.7 82 2 35.6
16:55 1017 30.03 846 24.98 4.8 40.7 81 1.9 35.4
17:00 1017 30.03 846 24.98 4.8 40.7 83 2.1 35.8
17:05 1017 30.03 846 24.98 4.7 40.5 82 1.9 35.4
17:10 1017 30.03 846 24.98 4.7 40.5 83 2 35.7
17:15 1017 30.03 846 24.98 4.6 40.3 82 1.8 35.2
17:20 1017 30.03 846 24.98 4.6 40.3 82 1.7 35.1
17:25 1017 30.03 846 24.98 4.6 40.4 82 1.8 35.3
17:30 1017 30.03 846 24.98 4.5 40.1 84 2.1 35.7
17:35 1017 30.03 846 24.98 4.4 39.8 84 1.8 35.3
17:40 1017 30.03 846 24.98 4.2 39.6 85 1.9 35.5
17:45 1017 30.03 846 24.98 4.1 39.4 85 1.8 35.2
17:50 1017 30.03 846 24.98 4 39.2 85 1.8 35.2
17:55 1017 30.03 846 24.98 4 39.1 86 1.8 35.2
18:00 1017 30.03 846 24.98 4.1 39.3 84 1.7 35
18:05 1017 30.03 847 25.01 4.2 39.6 84 1.8 35.3
18:10 1017 30.03 847 25.01 4.2 39.6 85 1.9 35.4
18:15 1017 30.03 847 25.01 4.2 39.6 84 1.7 35.1
18:20 1017 30.03 847 25.01 4.5 40.1 80 1.4 34.4
18:25 1017 30.03 847 25.01 4.7 40.4 79 1.3 34.4
18:30 1017 30.03 847 25.01 4.8 40.6 79 1.5 34.7
18:35 1017 30.03 847 25.01 4.9 40.9 79 1.7 35
18:40 1017 30.03 846 24.98 5.1 41.1 78 1.6 34.8
18:45 1017 30.03 846 24.98 5.2 41.4 76 1.4 34.5
18:50 1017 30.03 846 24.98 5.3 41.6 77 1.6 34.8
18:55 1017 30.03 846 24.98 5.4 41.7 76 1.5 34.7
19:00 1017 30.03 846 24.98 5.5 41.8 75 1.5 34.7
19:05 1017 30.03 846 24.98 5.5 41.8 74 1.3 34.3
19:10 1017 30.03 846 24.98 5.5 41.9 76 1.6 34.8
19:15 1017 30.03 846 24.98 5.5 41.9 74 1.3 34.4
19:20 1017 30.03 846 24.98 5.6 42 79 2.2 35.9
19:25 1017 30.03 846 24.98 5.2 41.4 82 2.3 36.2
19:30 1017 30.03 846 24.98 5 41 82 2.2 35.9
19:35 1017 30.03 846 24.98 4.9 40.7 82 2 35.7
19:40 1017 30.03 846 24.98 4.8 40.6 81 1.8 35.3
19:45 1017 30.03 847 25.01 4.9 40.8 83 2.2 36
19:50 1017 30.03 847 25.01 5 41.1 81 2 35.6
19:55 1017 30.03 847 25.01 5.1 41.1 78 1.5 34.7
20:00 1017 30.03 847 25.01 5.2 41.3 82 2.4 36.2
20:05 1018 30.06 847 25.01 4.9 40.9 82 2.1 35.7
20:10 1018 30.06 847 25.01 5 41 80 1.7 35.1
20:15 1018 30.06 847 25.01 5.2 41.3 80 2 35.5
20:20 1018 30.06 847 25.01 5.2 41.4 76 1.4 34.5
20:25 1018 30.06 847 25.01 5.3 41.5 78 1.8 35.3
20:30 1018 30.06 847 25.01 5.2 41.3 80 2.1 35.8
20:35 1018 30.06 847 25.01 5 41 81 2.1 35.8
20:40 1018 30.06 847 25.01 4.9 40.8 79 1.5 34.7
20:45 1018 30.06 847 25.01 5 40.9 80 1.7 35.1
20:50 1018 30.06 847 25.01 4.9 40.9 82 2.1 35.7
20:55 1018 30.06 847 25.01 4.8 40.7 80 1.6 35
21:00 1018 30.06 847 25.01 4.7 40.5 80 1.6 34.9
21:05 1018 30.06 847 25.01 4.5 40.2 80 1.4 34.6
21:10 1018 30.06 847 25.01 4.5 40.1 80 1.4 34.5
21:15 1018 30.06 847 25.01 4.6 40.3 79 1.3 34.4
21:20 1018 30.06 847 25.01 4.7 40.5 80 1.5 34.7
21:25 1018 30.06 847 25.01 4.7 40.4 79 1.4 34.5
21:30 1018 30.06 847 25.01 4.6 40.3 79 1.3 34.3
21:35 1018 30.06 847 25.01 4.5 40.2 80 1.5 34.6
21:40 1018 30.06 847 25.01 4.2 39.6 83 1.6 34.8
21:45 1018 30.06 847 25.01 3.9 39 82 1.1 33.9
21:50 1018 30.06 847 25.01 4 39.2 80 0.9 33.5
21:55 1018 30.06 847 25.01 4.1 39.4 79 0.8 33.5
22:00 1018 30.06 847 25.01 4.2 39.6 79 0.9 33.6
22:05 1018 30.06 847 25.01 4.3 39.7 79 1 33.8
22:10 1018 30.06 847 25.01 4.2 39.5 79 0.9 33.6
22:15 1018 30.06 847 25.01 4 39.2 79 0.7 33.3
22:20 1018 30.06 847 25.01 4.1 39.4 80 0.9 33.6
22:25 1018 30.06 847 25.01 4.1 39.4 78 0.6 33
22:30 1018 30.06 847 25.01 4.3 39.7 77 0.6 33.2
22:35 1018 30.06 847 25.01 4.4 39.9 77 0.8 33.4
22:40 1018 30.06 847 25.01 4.3 39.7 78 0.7 33.3
22:45 1018 30.06 847 25.01 4.3 39.7 76 0.5 32.8
22:50 1018 30.06 847 25.01 4.5 40.1 74 0.3 32.6
22:55 1018 30.06 847 25.01 4.7 40.5 73 0.4 32.6
23:00 1018 30.06 848 25.04 4.6 40.3 74 0.3 32.5
23:05 1018 30.06 848 25.04 4.5 40 76 0.6 33.2
23:10 1018 30.06 848 25.04 4.2 39.5 77 0.4 32.8
23:15 1018 30.06 848 25.04 3.9 39.1 79 0.6 33
23:20 1018 30.06 848 25.04 3.9 39 77 0.2 32.4
23:25 1018 30.06 848 25.04 4.1 39.4 76 0.3 32.5
23:30 1018 30.06 848 25.04 4.2 39.5 75 0.2 32.4
23:35 1019 30.09 848 25.04 4.2 39.6 76 0.5 32.8
23:40 1019 30.09 848 25.04 4.1 39.4 75 0.2 32.3
23:45 1019 30.09 848 25.04 4.2 39.5 76 0.2 32.4
23:50 1019 30.09 848 25.04 4.3 39.7 74 0.1 32.2
23:55 1019 30.09 848 25.04 4.3 39.7 75 0.2 32.4
24:00 1019 30.09 848 25.04 4.3 39.7 76 0.3 32.6